aviador You're here:

KCGS Decoded Metar

COLLEGE PARK in MD, USA
Report Time2017-04-24 13:01:00
UTC Time2017-04-24 13:12:52
Flight Rules mvfr MVFR
Wind050° at 04 kt
W.Decomp.*RWY 15: 0.1 kt HW 4 kt LCW
W.Rank050° ranks 30
Current wind is below 050° avg. (4.5)
Visibility6437 m
Phenomena:N/A
Clouds:Scattered 015 Hf
Broken 024 Hf
Overcast 047 Hf
Expected CloudBase > 800 ft AGL from Temp-Dew spread
Ceiling2,400 ft
Temp11°C (ISA -4)
Dew Point09°C (88% RH)
AAT9.4°C
QNH1019 hPa
Density Alt-466 ft
Elevation49 ft
Report Wrong Elevation
Raw Report
METAR KCGS 241301Z AUTO 05004KT 4SM SCT015 BKN024 OVC047 11/09 A3010
RMK AO1 T01120085=

Extra information for KCGS:More info

Metar Taf Metar & Taf Last 4 Metars F.Rules Stats Wind Profile Meteogram Temp Stats Airport Information Weather charts Add Link Nearby VenuesMetar ALERT Operation Metar Decoded Social comments

AIRNAV info for KCGS